ヌメア の空港の天気 - METARとTAF

ヌメア国際空港 ( NWWW / NOU ) - ニューカレドニア ヌメア
飛行場実況気象(Metar)
観測時間11/16 01:30 NCT (11/15 14:30 UTC)
風向・風速北東 2m/s
視程10km以上
天気現象
なし
気温22℃
湿度60%
気圧1016hPa
METARNWWW 151430Z AUTO 04004KT 330V090 CAVOK 22/14 Q1016 NOSIG
過去の天気等 Google飛行場航空写真 Wunderground天気予報

過去48時間のMETAR

飛行場予報(TAF)
発表時間: 11/15 22:00 NCT (11/15 11:00 UTC)
予報対象時間: 15日23時 NCT ~ 16日23時 NCT
風向・風速北東 3m/s
視程10km以上
少しの雲 雲底高度 1520m
16日9時 NCT ~ 16日11時 NCT に徐々に
風向・風速南東 5m/s
16日17時 NCT ~ 16日19時 NCT に徐々に
風向・風速不定 1m/s
TAF NWWW 151100Z 1512/1612 05005KT 9999 FEW050
BECMG 1522/1524 14010KT
BECMG 1606/1608 VRB02KT